Time;durP1;ratioP1;P1;durP2;ratioP2;P2;SDS_P1;SDS_P2;PMS_P1;PMS_P2;Temp;Humidity;BMP_temperature;BMP_pressure;BME280_temperature;BME280_humidity;BME280_pressure;Samples;Min_cycle;Max_cycle;Signal;HPM_P1;HPM_P2
2021/08/20 15:55:27;;;;;;;;;;;;;;;19.70;71.47;101419.06;5070785;27;1184035;-39
2021/08/20 15:57:52;;;;;;;;;;;;;;;19.70;70.74;101420.94;5105192;28;2406;-40
2021/08/20 16:00:17;;;;;;;;;;;;;;;19.69;70.84;101420.06;5098342;28;1696;-41
2021/08/20 16:02:42;;;;;;;;;;;;;;;19.72;70.39;101418.91;5095371;28;2039;-39
2021/08/20 16:05:07;;;;;;;;;;;;;;;19.73;70.79;101426.88;5102095;28;1503;-40
2021/08/20 16:07:33;;;;;;;;;;;;;;;19.79;70.93;101424.59;5092551;28;1679;-42
2021/08/20 16:09:58;;;;;;;;;;;;;;;19.81;71.12;101428.00;5105216;28;1984;-41
2021/08/20 16:12:23;;;;;;;;;;;;;;;19.82;71.36;101422.47;5102174;28;1590;-41
2021/08/20 16:14:48;;;;;;;;;;;;;;;19.86;71.30;101426.59;5097526;28;1964;-40
2021/08/20 16:17:13;;;;;;;;;;;;;;;19.88;70.95;101429.16;5100366;28;1643;-40
2021/08/20 16:19:38;;;;;;;;;;;;;;;19.91;70.21;101429.69;5112476;28;1792;-39
2021/08/20 16:22:04;;;;;;;;;;;;;;;19.92;70.35;101425.13;5101641;28;1598;-38
2021/08/20 16:24:29;;;;;;;;;;;;;;;19.90;70.72;101433.38;5094301;28;1921;-39
2021/08/20 16:26:54;;;;;;;;;;;;;;;19.91;70.27;101426.13;5105190;28;1764;-40
2021/08/20 16:29:19;;;;;;;;;;;;;;;19.96;70.23;101429.25;5079553;28;1705;-40
2021/08/20 16:31:44;;;;;;;;;;;;;;;19.99;70.09;101427.13;5107048;28;1603;-40
2021/08/20 16:34:09;;;;;;;;;;;;;;;20.13;74.35;101425.78;5104632;28;1941;-40
2021/08/20 16:36:34;;;;;;;;;;;;;;;20.10;71.68;101423.38;5103157;28;1992;-39
2021/08/20 16:38:59;;;;;;;;;;;;;;;20.06;70.98;101422.81;5104394;28;1643;-42
2021/08/20 16:41:24;;;;;;;;;;;;;;;20.08;70.87;101422.66;5096024;28;1824;-41
2021/08/20 16:43:49;;;;;;;;;;;;;;;20.09;70.21;101419.81;5099020;28;1760;-40
2021/08/20 16:46:14;;;;;;;;;;;;;;;20.11;69.74;101425.94;5107973;28;1776;-40
2021/08/20 16:48:39;;;;;;;;;;;;;;;20.09;70.82;101427.06;5106089;28;1667;-39
2021/08/20 16:51:05;;;;;;;;;;;;;;;20.11;70.43;101416.97;5097712;28;1617;-40
2021/08/20 16:53:30;;;;;;;;;;;;;;;20.11;70.67;101430.50;5104257;28;1898;-39
2021/08/20 16:55:55;;;;;;;;;;;;;;;20.07;71.12;101420.97;5096425;28;1563;-40
2021/08/20 16:58:20;;;;;;;;;;;;;;;20.04;71.50;101418.56;5097367;28;1580;-40
2021/08/20 17:00:46;;;;;;;;;;;;;;;20.05;71.53;101425.69;5104721;28;1527;-39
2021/08/20 17:03:11;;;;;;;;;;;;;;;20.06;70.69;101435.53;5100297;28;1459;-39
2021/08/20 17:05:36;;;;;;;;;;;;;;;20.02;71.71;101434.94;5099094;28;1727;-42
2021/08/20 17:08:02;;;;;;;;;;;;;;;20.03;71.20;101438.50;5087950;28;1815;-40
2021/08/20 17:10:27;;;;;;;;;;;;;;;19.99;71.18;101434.38;5088024;28;1707;-39
2021/08/20 17:12:52;;;;;;;;;;;;;;;19.99;71.75;101446.06;5071541;28;1667;-40
2021/08/20 17:15:17;;;;;;;;;;;;;;;20.04;71.56;101451.03;5090405;28;1906;-40
2021/08/20 17:17:43;;;;;;;;;;;;;;;20.03;71.85;101435.81;5082294;28;1795;-40
2021/08/20 17:20:08;;;;;;;;;;;;;;;19.99;72.65;101442.50;5088445;28;1774;-39
2021/08/20 17:22:33;;;;;;;;;;;;;;;19.99;72.03;101447.91;5087776;28;1650;-39
2021/08/20 17:24:58;;;;;;;;;;;;;;;19.98;71.90;101451.63;5087030;28;1665;-39
2021/08/20 17:27:23;;;;;;;;;;;;;;;20.01;72.07;101456.75;5088043;28;1763;-40
2021/08/20 17:29:49;;;;;;;;;;;;;;;20.05;72.13;101459.00;5092595;28;1635;-40
2021/08/20 17:32:14;;;;;;;;;;;;;;;20.08;71.77;101464.09;5094692;28;1591;-38
2021/08/20 17:34:39;;;;;;;;;;;;;;;19.97;71.94;101464.28;5081720;28;1962;-39
2021/08/20 17:37:04;;;;;;;;;;;;;;;19.96;71.95;101454.47;5086129;28;1657;-39
2021/08/20 17:39:29;;;;;;;;;;;;;;;19.96;71.77;101459.88;5085767;28;1965;-38
2021/08/20 17:41:54;;;;;;;;;;;;;;;19.92;71.00;101458.44;5091362;28;1438;-41
2021/08/20 17:44:19;;;;;;;;;;;;;;;19.88;71.57;101467.88;5088460;28;1589;-40
2021/08/20 17:46:44;;;;;;;;;;;;;;;19.89;71.98;101458.72;5088168;28;1617;-39
2021/08/20 17:49:09;;;;;;;;;;;;;;;19.92;72.12;101463.00;5089260;28;1942;-39
2021/08/20 17:51:34;;;;;;;;;;;;;;;19.94;71.20;101466.41;5080919;28;1561;-39
2021/08/20 17:53:59;;;;;;;;;;;;;;;19.96;71.24;101465.28;5076499;28;1913;-42
2021/08/20 17:56:24;;;;;;;;;;;;;;;19.90;70.97;101467.69;5089133;28;1739;-43
2021/08/20 17:58:49;;;;;;;;;;;;;;;19.84;71.05;101468.31;5093014;28;1734;-42
2021/08/20 18:01:16;;;;;;;;;;;;;;;19.81;70.97;101464.03;5090052;28;1902;-39
2021/08/20 18:03:42;;;;;;;;;;;;;;;19.80;71.46;101466.88;5084130;28;1729;-42
2021/08/20 18:06:07;;;;;;;;;;;;;;;19.81;71.74;101476.69;5086791;28;1547;-41
2021/08/20 18:08:32;;;;;;;;;;;;;;;19.82;70.90;101476.56;5085339;28;1684;-41
2021/08/20 18:10:57;;;;;;;;;;;;;;;19.83;71.92;101475.56;5074297;28;1738;-40
2021/08/20 18:13:22;;;;;;;;;;;;;;;19.84;70.98;101481.81;5081734;28;1967;-39
2021/08/20 18:15:47;;;;;;;;;;;;;;;19.89;71.87;101493.91;5085456;28;1769;-40
2021/08/20 18:18:12;;;;;;;;;;;;;;;19.85;70.94;101476.28;5087656;28;1698;-40
2021/08/20 18:20:37;;;;;;;;;;;;;;;19.87;71.08;101476.13;5084665;28;1702;-39
2021/08/20 18:23:03;;;;;;;;;;;;;;;19.83;71.15;101480.13;5085127;28;2088;-39
2021/08/20 18:25:28;;;;;;;;;;;;;;;19.89;70.88;101479.53;5089545;28;1595;-43
2021/08/20 18:27:53;;;;;;;;;;;;;;;20.02;71.17;101480.09;5092334;28;1758;-42
2021/08/20 18:30:18;;;;;;;;;;;;;;;19.89;72.17;101485.78;5084176;28;1673;-44
2021/08/20 18:32:43;;;;;;;;;;;;;;;19.71;72.21;101485.66;5088702;28;1724;-45
2021/08/20 18:35:08;;;;;;;;;;;;;;;19.63;73.17;101487.38;5069592;28;1941;-43
2021/08/20 18:37:33;;;;;;;;;;;;;;;19.60;72.54;101490.38;5081667;28;1736;-43
2021/08/20 18:39:58;;;;;;;;;;;;;;;19.51;72.55;101486.69;5077066;28;1930;-43
2021/08/20 18:42:23;;;;;;;;;;;;;;;19.60;72.88;101493.94;5077009;28;1923;-44
2021/08/20 18:44:49;;;;;;;;;;;;;;;19.67;72.74;101496.94;5077294;28;1663;-42
2021/08/20 18:47:15;;;;;;;;;;;;;;;19.67;72.96;101495.06;5090174;28;1953;-43
2021/08/20 18:49:40;;;;;;;;;;;;;;;19.68;71.79;101494.09;5093512;28;1652;-41
2021/08/20 18:52:05;;;;;;;;;;;;;;;19.72;73.07;101503.59;5086123;28;1560;-39
2021/08/20 18:54:30;;;;;;;;;;;;;;;19.76;72.99;101499.63;5092156;28;1979;-43
2021/08/20 18:56:55;;;;;;;;;;;;;;;19.69;72.62;101497.66;5089753;28;2029;-44
2021/08/20 18:59:20;;;;;;;;;;;;;;;19.75;73.17;101510.56;5083246;28;1679;-45
2021/08/20 19:01:45;;;;;;;;;;;;;;;19.76;73.32;101512.28;5083265;28;1591;-44
2021/08/20 19:04:10;;;;;;;;;;;;;;;19.75;73.41;101510.56;5085332;28;1558;-48
2021/08/20 19:06:36;;;;;;;;;;;;;;;19.75;73.66;101515.97;5084875;28;1594;-46
2021/08/20 19:09:01;;;;;;;;;;;;;;;19.72;74.04;101517.13;5083638;28;1793;-49
2021/08/20 19:11:26;;;;;;;;;;;;;;;19.68;74.11;101510.31;5083403;28;1566;-43
2021/08/20 19:13:51;;;;;;;;;;;;;;;19.64;74.06;101518.84;5065986;28;1918;-45
2021/08/20 19:16:16;;;;;;;;;;;;;;;19.62;75.05;101518.97;5083782;28;1711;-46
2021/08/20 19:18:41;;;;;;;;;;;;;;;19.62;74.17;101521.69;5086905;28;1802;-47
2021/08/20 19:21:06;;;;;;;;;;;;;;;19.59;76.30;101532.78;5084879;28;1937;-48
2021/08/20 19:23:33;;;;;;;;;;;;;;;19.48;74.63;101532.88;5085244;28;1594;-45
2021/08/20 19:25:58;;;;;;;;;;;;;;;19.51;75.49;101534.50;5087268;28;1580;-46
2021/08/20 19:28:23;;;;;;;;;;;;;;;19.47;76.15;101539.28;5080636;28;1584;-46
2021/08/20 19:30:48;;;;;;;;;;;;;;;19.47;75.34;101543.84;5083034;28;1530;-44
2021/08/20 19:33:13;;;;;;;;;;;;;;;19.47;76.01;101549.25;5085832;28;1893;-43
2021/08/20 19:35:38;;;;;;;;;;;;;;;19.47;75.33;101543.84;5091046;28;1751;-45
2021/08/20 19:38:03;;;;;;;;;;;;;;;19.51;76.28;101546.16;5085049;28;1654;-43
2021/08/20 19:40:28;;;;;;;;;;;;;;;19.52;77.29;101547.00;5061254;28;1703;-43
2021/08/20 19:42:53;;;;;;;;;;;;;;;19.49;77.63;101542.69;5080991;28;1752;-43
2021/08/20 19:45:19;;;;;;;;;;;;;;;19.49;76.71;101553.53;5083438;28;2583;-42
2021/08/20 19:47:44;;;;;;;;;;;;;;;19.43;78.19;101545.97;5081221;28;1634;-48
2021/08/20 19:50:09;;;;;;;;;;;;;;;19.46;77.11;101550.22;5082415;28;1706;-46
2021/08/20 19:52:34;;;;;;;;;;;;;;;19.48;76.17;101551.81;5083865;28;1492;-42
2021/08/20 19:54:59;;;;;;;;;;;;;;;19.50;76.89;101544.44;5077164;28;1897;-41
2021/08/20 19:57:24;;;;;;;;;;;;;;;19.51;76.46;101554.28;5076462;28;1801;-42
2021/08/20 19:59:49;;;;;;;;;;;;;;;19.51;76.05;101548.00;5079845;28;1783;-45
2021/08/20 20:02:14;;;;;;;;;;;;;;;19.50;77.04;101552.56;5091423;28;1859;-45
2021/08/20 20:04:39;;;;;;;;;;;;;;;19.50;75.76;101557.97;5080379;28;1600;-42
2021/08/20 20:07:04;;;;;;;;;;;;;;;19.51;76.01;101556.97;5078758;28;1570;-43
2021/08/20 20:09:30;;;;;;;;;;;;;;;19.50;76.05;101563.38;5080458;28;1829;-43
2021/08/20 20:11:55;;;;;;;;;;;;;;;19.48;76.46;101561.75;5082272;28;1619;-44
2021/08/20 20:14:20;;;;;;;;;;;;;;;19.47;75.96;101563.63;5085007;28;2005;-46
2021/08/20 20:16:46;;;;;;;;;;;;;;;19.46;77.37;101571.84;5083550;28;1643;-46
2021/08/20 20:19:11;;;;;;;;;;;;;;;19.45;77.71;101568.31;5081884;28;1471;-44
2021/08/20 20:21:36;;;;;;;;;;;;;;;19.42;77.99;101571.28;5081528;28;1554;-43
2021/08/20 20:24:01;;;;;;;;;;;;;;;19.40;77.97;101570.56;5079903;28;1809;-42
2021/08/20 20:26:26;;;;;;;;;;;;;;;19.39;78.16;101567.00;5081923;28;1704;-44
2021/08/20 20:28:51;;;;;;;;;;;;;;;19.39;78.78;101566.16;5083190;28;1639;-46
2021/08/20 20:31:17;;;;;;;;;;;;;;;19.38;79.04;101564.44;5082180;28;1715;-42
2021/08/20 20:33:42;;;;;;;;;;;;;;;19.34;79.02;101561.19;5082638;28;1901;-47
2021/08/20 20:36:07;;;;;;;;;;;;;;;19.35;78.66;101572.81;5080087;28;1623;-47
2021/08/20 20:38:32;;;;;;;;;;;;;;;19.33;79.51;101569.44;5084689;28;1601;-48
2021/08/20 20:40:57;;;;;;;;;;;;;;;19.32;79.75;101570.41;5078111;28;1733;-49
2021/08/20 20:43:22;;;;;;;;;;;;;;;19.31;78.80;101571.41;5084528;28;1596;-48
2021/08/20 20:45:47;;;;;;;;;;;;;;;19.30;79.03;101575.97;5082635;28;1566;-49
2021/08/20 20:48:12;;;;;;;;;;;;;;;19.28;78.50;101571.69;5086060;28;1851;-47
2021/08/20 20:50:37;;;;;;;;;;;;;;;19.27;79.09;101573.53;5081538;28;1547;-49
2021/08/20 20:53:02;;;;;;;;;;;;;;;19.26;79.33;101573.66;5082111;28;1708;-47
2021/08/20 20:55:27;;;;;;;;;;;;;;;19.26;79.93;101573.66;5083834;28;1893;-49
2021/08/20 20:57:53;;;;;;;;;;;;;;;19.25;78.77;101578.22;5080365;28;1701;-46
2021/08/20 21:00:18;;;;;;;;;;;;;;;19.24;79.72;101578.34;5081285;28;1811;-48
2021/08/20 21:02:43;;;;;;;;;;;;;;;19.21;79.82;101576.75;5082960;28;1623;-48
2021/08/20 21:05:08;;;;;;;;;;;;;;;19.23;79.66;101576.63;5086289;28;1811;-46
2021/08/20 21:07:33;;;;;;;;;;;;;;;19.23;79.45;101579.34;5087228;28;2182;-45
2021/08/20 21:09:58;;;;;;;;;;;;;;;19.22;78.93;101574.91;5082251;28;1848;-49
2021/08/20 21:12:23;;;;;;;;;;;;;;;19.21;78.37;101575.91;5085025;28;1778;-49
2021/08/20 21:14:49;;;;;;;;;;;;;;;19.19;78.38;101577.88;5080205;28;2070;-49
2021/08/20 21:17:14;;;;;;;;;;;;;;;19.18;79.36;101573.47;5078823;28;1787;-46
2021/08/20 21:19:39;;;;;;;;;;;;;;;19.16;79.20;101573.66;5092172;28;1838;-49
2021/08/20 21:22:04;;;;;;;;;;;;;;;19.16;79.18;101564.69;5097322;28;1501;-46
2021/08/20 21:24:29;;;;;;;;;;;;;;;19.17;77.90;101569.09;5097199;28;1634;-46
2021/08/20 21:26:54;;;;;;;;;;;;;;;19.19;78.65;101569.78;5097087;28;1735;-46
2021/08/20 21:29:19;;;;;;;;;;;;;;;19.21;77.61;101570.50;5096818;28;1722;-43
2021/08/20 21:31:45;;;;;;;;;;;;;;;19.19;78.30;101573.34;5096766;28;1698;-44
2021/08/20 21:34:10;;;;;;;;;;;;;;;19.17;78.49;101577.19;5096537;28;1941;-45
2021/08/20 21:36:35;;;;;;;;;;;;;;;19.15;78.78;101571.06;5096807;28;1673;-44
2021/08/20 21:39:00;;;;;;;;;;;;;;;19.14;78.88;101572.06;5096625;28;1865;-46
2021/08/20 21:41:25;;;;;;;;;;;;;;;19.12;78.99;101580.31;5096945;28;1662;-48
2021/08/20 21:43:50;;;;;;;;;;;;;;;19.11;77.52;101567.78;5096649;28;1729;-46
2021/08/20 21:46:15;;;;;;;;;;;;;;;19.11;78.54;101564.22;5096212;28;1599;-49
2021/08/20 21:48:40;;;;;;;;;;;;;;;19.10;78.33;101571.47;5096073;28;1593;-46
2021/08/20 21:51:05;;;;;;;;;;;;;;;19.10;78.79;101570.63;5096127;28;1697;-44
2021/08/20 21:53:32;;;;;;;;;;;;;;;19.06;78.61;101573.59;5096158;28;1894;-44
2021/08/20 21:55:57;;;;;;;;;;;;;;;19.07;78.08;101569.03;5095949;28;1678;-44
2021/08/20 21:58:23;;;;;;;;;;;;;;;19.05;78.51;101582.69;5095981;28;1703;-46
2021/08/20 22:00:48;;;;;;;;;;;;;;;19.05;78.86;101571.03;5096670;28;1429;-48
2021/08/20 22:03:13;;;;;;;;;;;;;;;19.04;76.83;101582.81;5097642;28;839;-48
2021/08/20 22:05:40;;;;;;;;;;;;;;;19.04;77.17;101583.69;5096823;28;1712;-47
2021/08/20 22:08:05;;;;;;;;;;;;;;;19.02;78.53;101591.06;5097255;28;834;-48
2021/08/20 22:10:30;;;;;;;;;;;;;;;19.02;78.29;101588.34;5096756;28;1044;-47
2021/08/20 22:12:55;;;;;;;;;;;;;;;19.02;78.46;101591.06;5094791;28;1869;-46
2021/08/20 22:15:20;;;;;;;;;;;;;;;18.99;77.03;101587.78;5096981;28;1968;-45
2021/08/20 22:17:45;;;;;;;;;;;;;;;18.99;77.69;101598.56;5097096;28;886;-47
2021/08/20 22:20:10;;;;;;;;;;;;;;;18.97;77.76;101593.34;5097436;28;856;-47
2021/08/20 22:22:36;;;;;;;;;;;;;;;18.96;77.21;101591.63;5097064;28;1875;-48
2021/08/20 22:25:01;;;;;;;;;;;;;;;18.95;77.17;101584.50;5096549;28;1843;-48
2021/08/20 22:27:26;;;;;;;;;;;;;;;18.94;77.22;101585.50;5096631;28;870;-46
2021/08/20 22:29:51;;;;;;;;;;;;;;;18.95;77.36;101589.91;5096804;28;996;-45
2021/08/20 22:32:16;;;;;;;;;;;;;;;18.93;78.03;101588.34;5096101;28;1015;-48
2021/08/20 22:34:41;;;;;;;;;;;;;;;18.91;78.16;101590.31;5096453;28;1957;-44
2021/08/20 22:37:06;;;;;;;;;;;;;;;18.89;77.76;101582.34;5095838;28;2059;-42
2021/08/20 22:39:31;;;;;;;;;;;;;;;18.89;77.59;101584.19;5096608;28;946;-43
2021/08/20 22:41:56;;;;;;;;;;;;;;;18.89;77.48;101586.88;5096439;28;865;-41
2021/08/20 22:44:21;;;;;;;;;;;;;;;18.89;77.26;101584.19;5096428;28;1064;-41
2021/08/20 22:46:48;;;;;;;;;;;;;;;18.87;76.62;101587.03;5096272;28;1991;-48
2021/08/20 22:49:13;;;;;;;;;;;;;;;18.87;76.45;101588.88;5095760;28;865;-42
2021/08/20 22:51:38;;;;;;;;;;;;;;;18.84;76.85;101589.97;5096514;28;1733;-48
2021/08/20 22:54:03;;;;;;;;;;;;;;;18.81;76.31;101579.44;5096200;28;1951;-44
2021/08/20 22:56:28;;;;;;;;;;;;;;;18.82;76.85;101577.59;5095894;28;1977;-41
2021/08/20 22:58:54;;;;;;;;;;;;;;;18.82;77.31;101580.31;5095975;28;838;-45
2021/08/20 23:01:19;;;;;;;;;;;;;;;18.81;75.88;101584.84;5096160;28;1762;-46
2021/08/20 23:03:44;;;;;;;;;;;;;;;18.80;76.36;101577.75;5095368;28;894;-46
2021/08/20 23:06:09;;;;;;;;;;;;;;;18.82;75.38;101588.41;5095558;28;2091;-45
2021/08/20 23:08:34;;;;;;;;;;;;;;;18.79;75.98;101589.56;5095951;28;910;-46
2021/08/20 23:10:59;;;;;;;;;;;;;;;18.79;75.69;101581.44;5096271;28;1705;-41
2021/08/20 23:13:24;;;;;;;;;;;;;;;18.75;75.53;101587.25;5095510;28;2106;-46
2021/08/20 23:15:49;;;;;;;;;;;;;;;18.76;74.68;101576.31;5095773;28;1047;-45
2021/08/20 23:18:14;;;;;;;;;;;;;;;18.75;74.90;101581.84;5096065;28;1004;-44
2021/08/20 23:20:39;;;;;;;;;;;;;;;18.74;74.90;101575.59;5096113;28;1604;-43
2021/08/20 23:23:04;;;;;;;;;;;;;;;18.72;74.60;101577.56;5095286;28;2000;-45
2021/08/20 23:25:30;;;;;;;;;;;;;;;18.71;74.82;101581.25;5095418;28;2047;-48
2021/08/20 23:27:55;;;;;;;;;;;;;;;18.72;74.77;101580.28;5095816;28;1055;-46
2021/08/20 23:30:20;;;;;;;;;;;;;;;18.71;74.38;101574.00;5095535;28;1457;-45
2021/08/20 23:32:45;;;;;;;;;;;;;;;18.69;74.60;101575.13;5095899;28;834;-46
2021/08/20 23:35:10;;;;;;;;;;;;;;;18.68;73.98;101576.13;5095091;28;1928;-46
2021/08/20 23:37:36;;;;;;;;;;;;;;;18.69;74.82;101570.59;5077056;28;827;-44
2021/08/20 23:40:01;;;;;;;;;;;;;;;18.67;74.08;101574.41;5077790;28;1439;-48
2021/08/20 23:42:26;;;;;;;;;;;;;;;18.66;73.35;101567.28;5094846;28;2081;-43
2021/08/20 23:44:51;;;;;;;;;;;;;;;18.64;73.42;101572.81;5095233;28;1023;-45
2021/08/20 23:47:16;;;;;;;;;;;;;;;18.64;74.05;101563.88;5095009;28;934;-46
2021/08/20 23:49:41;;;;;;;;;;;;;;;18.65;74.62;101573.69;5095400;28;1523;-41
2021/08/20 23:52:06;;;;;;;;;;;;;;;18.63;73.61;101570.28;5094945;28;1987;-44
2021/08/20 23:54:31;;;;;;;;;;;;;;;18.62;72.68;101571.28;5095360;28;1979;-45
2021/08/20 23:56:56;;;;;;;;;;;;;;;18.63;72.58;101575.69;5095274;28;845;-44
2021/08/20 23:59:21;;;;;;;;;;;;;;;18.61;72.28;101575.81;5095849;28;1605;-42
